MMGM/GYM METAR and TAF weather

Enter ICAO airport designator
Station Type Date Time Source
MMGM METAR 2021/05/10 23:40 UTC NOAA

MMGM 102340Z 22014KT 10SM SKC 29/22 A2975


Station Type Date Time Source
MMGM Decoded METAR 2021/05/10 23:40 UTC NOAA

Guaymas International Airport, Mexico (MMGM) 27-58N 110-56W
May 10, 2021 - 07:40 PM EDT / 2021.05.10 2340 UTC
Wind: from the SW (220 degrees) at 16 MPH (14 KT):0
Visibility: 10 mile(s):0
Sky conditions: clear
Temperature: 84 F (29 C)
Dew Point: 71 F (22 C)
Relative Humidity: 65%
Pressure (altimeter): 29.75 in. Hg (1007 hPa)
ob: MMGM 102340Z 22014KT 10SM SKC 29/22 A2975
cycle: 23

Station Type Date Time Source
MMGM TAF 2021/05/10 18:12 UTC NOAA

TAF MMGM 101709Z 1018/1118 22015KT P6SM SKC
BECMG 1100/1101 00000KT
FM111500 20010KT P6SM SKC

Example: see airport list